Time;durP1;ratioP1;P1;durP2;ratioP2;P2;SDS_P1;SDS_P2;PMS_P1;PMS_P2;Temp;Humidity;BMP_temperature;BMP_pressure;BME280_temperature;BME280_humidity;BME280_pressure;Samples;Min_cycle;Max_cycle;Signal;HPM_P1;HPM_P2
2023/10/30 00:00:09;;;;;;;0.80;0.80;;;;;;;;;;6278438;28;20294;-70
2023/10/30 00:03:14;;;;;;;0.75;0.75;;;;;;;;;;6280162;28;20330;-71
2023/10/30 00:06:18;;;;;;;0.90;0.90;;;;;;;;;;6280482;28;20318;-71
2023/10/30 00:09:23;;;;;;;0.73;0.73;;;;;;;;;;6280272;28;20661;-71
2023/10/30 00:12:29;;;;;;;0.80;0.80;;;;;;;;;;6255189;28;20291;-71
2023/10/30 00:15:33;;;;;;;0.70;0.70;;;;;;;;;;6255584;28;20296;-71
2023/10/30 00:18:38;;;;;;;0.85;0.85;;;;;;;;;;6255654;28;20580;-72
2023/10/30 00:21:43;;;;;;;1.27;0.80;;;;;;;;;;6255951;28;20295;-72
2023/10/30 00:24:47;;;;;;;0.80;0.80;;;;;;;;;;6253903;28;20303;-72
2023/10/30 00:27:52;;;;;;;0.77;0.77;;;;;;;;;;6255357;28;20292;-72
2023/10/30 00:30:56;;;;;;;0.80;0.80;;;;;;;;;;6255977;28;20303;-71
2023/10/30 00:34:00;;;;;;;0.70;0.70;;;;;;;;;;6253787;28;20323;-73
2023/10/30 00:37:04;;;;;;;1.02;1.02;;;;;;;;;;6254009;28;20304;-71
2023/10/30 00:40:09;;;;;;;0.70;0.70;;;;;;;;;;6255248;28;20636;-71
2023/10/30 00:43:14;;;;;;;0.82;0.82;;;;;;;;;;6269917;28;20292;-71
2023/10/30 00:46:19;;;;;;;0.80;0.80;;;;;;;;;;6253915;28;20620;-72
2023/10/30 00:49:23;;;;;;;0.80;0.80;;;;;;;;;;6255216;28;20299;-71
2023/10/30 00:52:27;;;;;;;0.80;0.80;;;;;;;;;;6254875;28;20435;-71
2023/10/30 00:55:31;;;;;;;0.68;0.68;;;;;;;;;;6253370;28;20364;-71
2023/10/30 00:58:36;;;;;;;0.70;0.70;;;;;;;;;;6253214;28;20500;-72
2023/10/30 01:01:40;;;;;;;1.08;0.77;;;;;;;;;;6258078;28;20291;-72
2023/10/30 01:04:44;;;;;;;0.70;0.70;;;;;;;;;;6259245;28;20291;-71
2023/10/30 01:07:48;;;;;;;0.80;0.80;;;;;;;;;;6257803;28;20497;-70
2023/10/30 01:10:53;;;;;;;0.82;0.82;;;;;;;;;;6271775;28;20583;-70
2023/10/30 01:13:58;;;;;;;0.68;0.68;;;;;;;;;;6283778;28;20479;-70
2023/10/30 01:17:02;;;;;;;0.70;0.70;;;;;;;;;;6282686;28;20283;-71
2023/10/30 01:20:08;;;;;;;0.85;0.85;;;;;;;;;;6283894;28;20302;-70
2023/10/30 01:23:11;;;;;;;0.82;0.82;;;;;;;;;;6283656;28;20611;-71
2023/10/30 01:26:15;;;;;;;0.82;0.82;;;;;;;;;;6282348;28;20299;-71
2023/10/30 01:29:21;;;;;;;0.73;0.73;;;;;;;;;;6283741;28;20378;-72
2023/10/30 01:32:25;;;;;;;0.90;0.90;;;;;;;;;;6283642;28;20490;-71
2023/10/30 01:35:29;;;;;;;0.82;0.82;;;;;;;;;;6283880;28;20291;-70
2023/10/30 01:38:33;;;;;;;1.35;0.93;;;;;;;;;;6282597;28;20605;-71
2023/10/30 01:41:37;;;;;;;0.80;0.80;;;;;;;;;;6283992;28;20436;-71
2023/10/30 01:44:55;;;;;;;0.80;0.80;;;;;;;;;;6283062;28;20307;-71
2023/10/30 01:47:59;;;;;;;0.80;0.80;;;;;;;;;;6283023;28;20295;-73
2023/10/30 01:51:05;;;;;;;1.00;1.00;;;;;;;;;;6283405;28;20295;-71
2023/10/30 01:54:09;;;;;;;0.70;0.70;;;;;;;;;;6279508;28;20493;-71
2023/10/30 01:57:14;;;;;;;0.75;0.75;;;;;;;;;;6282626;28;20578;-72
2023/10/30 02:00:20;;;;;;;0.90;0.90;;;;;;;;;;6281704;28;20467;-71
2023/10/30 02:03:25;;;;;;;0.90;0.90;;;;;;;;;;6280494;28;20314;-68
2023/10/30 02:06:29;;;;;;;0.77;0.77;;;;;;;;;;6281154;28;20314;-71
2023/10/30 02:09:33;;;;;;;1.55;0.80;;;;;;;;;;6280747;28;20290;-72
2023/10/30 02:12:37;;;;;;;0.93;0.90;;;;;;;;;;6280957;28;20290;-71
2023/10/30 02:15:43;;;;;;;0.82;0.82;;;;;;;;;;6281354;28;20475;-71
2023/10/30 02:18:47;;;;;;;0.90;0.90;;;;;;;;;;6282553;28;20306;-71
2023/10/30 02:21:52;;;;;;;0.95;0.95;;;;;;;;;;6282829;28;20310;-72
2023/10/30 02:24:56;;;;;;;0.93;0.93;;;;;;;;;;6282413;28;20291;-70
2023/10/30 02:28:01;;;;;;;1.00;1.00;;;;;;;;;;6280656;28;20326;-71
2023/10/30 02:31:06;;;;;;;1.00;1.00;;;;;;;;;;6282761;28;20291;-73
2023/10/30 02:34:10;;;;;;;0.80;0.80;;;;;;;;;;6282236;28;20303;-72
2023/10/30 02:37:15;;;;;;;0.88;0.88;;;;;;;;;;6280290;28;20386;-73
2023/10/30 02:40:20;;;;;;;1.00;1.00;;;;;;;;;;6282638;28;20314;-71
2023/10/30 02:43:25;;;;;;;0.98;0.98;;;;;;;;;;6281665;28;20334;-71
2023/10/30 02:46:29;;;;;;;0.90;0.90;;;;;;;;;;6280474;28;20295;-70
2023/10/30 02:49:34;;;;;;;1.15;1.15;;;;;;;;;;6280695;28;20310;-71
2023/10/30 02:52:38;;;;;;;0.80;0.80;;;;;;;;;;6278491;28;20302;-75
2023/10/30 02:55:43;;;;;;;1.00;1.00;;;;;;;;;;6282317;28;20304;-71
2023/10/30 02:58:48;;;;;;;1.00;1.00;;;;;;;;;;6279807;28;20253;-70
2023/10/30 03:01:52;;;;;;;1.00;1.00;;;;;;;;;;6281974;28;20298;-71
2023/10/30 03:04:56;;;;;;;0.90;0.90;;;;;;;;;;6281560;28;20307;-71
2023/10/30 03:08:01;;;;;;;0.90;0.90;;;;;;;;;;6281620;28;20294;-71
2023/10/30 03:11:04;;;;;;;0.90;0.90;;;;;;;;;;6266696;28;20304;-72
2023/10/30 03:14:10;;;;;;;0.98;0.98;;;;;;;;;;6255199;28;20291;-71
2023/10/30 03:17:14;;;;;;;1.00;1.00;;;;;;;;;;6256208;28;20335;-71
2023/10/30 03:20:18;;;;;;;1.00;1.00;;;;;;;;;;6256627;28;20299;-71
2023/10/30 03:23:21;;;;;;;0.85;0.85;;;;;;;;;;6254134;28;20629;-71
2023/10/30 03:26:25;;;;;;;1.05;1.05;;;;;;;;;;6255112;28;20300;-72
2023/10/30 03:29:35;;;;;;;1.05;1.05;;;;;;;;;;6255997;28;20375;-71
2023/10/30 03:32:39;;;;;;;0.90;0.90;;;;;;;;;;6255232;28;20375;-71
2023/10/30 03:35:43;;;;;;;0.90;0.90;;;;;;;;;;6256464;28;20256;-71
2023/10/30 03:38:47;;;;;;;1.20;1.20;;;;;;;;;;6255292;28;20474;-70
2023/10/30 03:41:52;;;;;;;1.00;1.00;;;;;;;;;;6256050;28;20479;-71
2023/10/30 03:44:57;;;;;;;1.13;1.13;;;;;;;;;;6254381;28;20512;-72
2023/10/30 03:48:01;;;;;;;1.15;1.15;;;;;;;;;;6256010;28;20620;-70
2023/10/30 03:51:05;;;;;;;1.20;1.20;;;;;;;;;;6256442;28;20292;-72
2023/10/30 03:54:10;;;;;;;1.33;1.33;;;;;;;;;;6253507;28;20620;-72
2023/10/30 03:57:14;;;;;;;1.27;1.27;;;;;;;;;;6255438;28;20299;-71
2023/10/30 04:00:19;;;;;;;1.10;1.10;;;;;;;;;;6257638;28;20328;-72
2023/10/30 04:03:23;;;;;;;1.08;1.08;;;;;;;;;;6278136;28;20295;-71
2023/10/30 04:06:27;;;;;;;1.95;1.30;;;;;;;;;;6280558;28;20299;-71
2023/10/30 04:09:33;;;;;;;1.40;1.40;;;;;;;;;;6280324;28;20295;-71
2023/10/30 04:12:38;;;;;;;1.27;1.27;;;;;;;;;;6280442;28;20287;-71
2023/10/30 04:15:43;;;;;;;1.50;1.50;;;;;;;;;;6279994;28;20336;-70
2023/10/30 04:18:47;;;;;;;1.30;1.30;;;;;;;;;;6280107;28;20335;-71
2023/10/30 04:21:51;;;;;;;1.20;1.20;;;;;;;;;;6280378;28;20302;-70
2023/10/30 04:24:55;;;;;;;1.50;1.50;;;;;;;;;;6280033;28;20303;-71
2023/10/30 04:27:59;;;;;;;1.48;1.45;;;;;;;;;;6279780;28;20295;-71
2023/10/30 04:31:06;;;;;;;1.58;1.58;;;;;;;;;;6280209;28;20302;-70
2023/10/30 04:34:10;;;;;;;1.55;1.45;;;;;;;;;;6280343;28;20322;-70
2023/10/30 04:37:14;;;;;;;1.58;1.58;;;;;;;;;;6284894;28;20366;-71
2023/10/30 04:40:18;;;;;;;2.45;1.40;;;;;;;;;;6284348;28;20611;-70
2023/10/30 04:43:22;;;;;;;1.85;1.60;;;;;;;;;;6284336;28;20510;-71
2023/10/30 04:46:27;;;;;;;1.77;1.77;;;;;;;;;;6284810;28;20295;-72
2023/10/30 04:49:34;;;;;;;1.30;1.30;;;;;;;;;;6284243;28;20312;-71
2023/10/30 04:52:38;;;;;;;1.30;1.30;;;;;;;;;;6282400;28;20482;-76
2023/10/30 04:55:42;;;;;;;3.47;1.67;;;;;;;;;;6284175;28;20552;-71
2023/10/30 04:58:46;;;;;;;1.63;1.50;;;;;;;;;;6283883;28;20461;-70
2023/10/30 05:01:51;;;;;;;1.40;1.40;;;;;;;;;;6283992;28;20315;-70
2023/10/30 05:04:55;;;;;;;1.70;1.70;;;;;;;;;;6283711;28;20299;-70
2023/10/30 05:07:59;;;;;;;1.85;1.77;;;;;;;;;;6283918;28;20382;-73
2023/10/30 05:11:03;;;;;;;1.50;1.50;;;;;;;;;;6284255;28;20554;-69
2023/10/30 05:14:07;;;;;;;1.53;1.53;;;;;;;;;;6283728;28;20282;-70
2023/10/30 05:17:13;;;;;;;2.67;1.50;;;;;;;;;;6283667;28;20291;-70
2023/10/30 05:20:17;;;;;;;1.77;1.77;;;;;;;;;;6283182;28;20302;-71
2023/10/30 05:23:20;;;;;;;1.90;1.90;;;;;;;;;;6283426;28;20314;-70
2023/10/30 05:26:24;;;;;;;1.75;1.75;;;;;;;;;;6283592;28;20466;-72
2023/10/30 05:29:28;;;;;;;4.00;1.70;;;;;;;;;;6281290;28;20314;-72
2023/10/30 05:32:33;;;;;;;1.80;1.70;;;;;;;;;;6282703;28;20271;-71
2023/10/30 05:35:37;;;;;;;1.50;1.50;;;;;;;;;;6282901;28;20391;-72
2023/10/30 05:38:40;;;;;;;1.70;1.70;;;;;;;;;;6283335;28;20302;-71
2023/10/30 05:41:44;;;;;;;1.88;1.80;;;;;;;;;;6283704;28;20290;-71
2023/10/30 05:44:48;;;;;;;1.63;1.60;;;;;;;;;;6282771;28;20336;-71
2023/10/30 05:47:53;;;;;;;1.80;1.70;;;;;;;;;;6282412;28;20307;-71
2023/10/30 05:50:57;;;;;;;1.75;1.70;;;;;;;;;;6282547;28;20461;-71
2023/10/30 05:54:01;;;;;;;1.63;1.60;;;;;;;;;;6281545;28;20326;-69
2023/10/30 05:57:05;;;;;;;1.70;1.70;;;;;;;;;;6283000;28;20287;-71
2023/10/30 06:00:10;;;;;;;1.65;1.65;;;;;;;;;;6282280;28;20307;-70
2023/10/30 06:03:15;;;;;;;1.60;1.60;;;;;;;;;;6282036;28;20295;-72
2023/10/30 06:06:19;;;;;;;1.70;1.60;;;;;;;;;;6283050;28;20306;-70
2023/10/30 06:09:24;;;;;;;1.50;1.50;;;;;;;;;;6282551;28;20302;-71
2023/10/30 06:12:28;;;;;;;1.77;1.70;;;;;;;;;;6282678;28;20298;-72
2023/10/30 06:15:32;;;;;;;1.60;1.60;;;;;;;;;;6282351;28;20294;-70
2023/10/30 06:18:37;;;;;;;1.40;1.40;;;;;;;;;;6282540;28;20638;-71
2023/10/30 06:21:43;;;;;;;2.22;1.67;;;;;;;;;;6282623;28;20310;-72
2023/10/30 06:24:47;;;;;;;1.50;1.50;;;;;;;;;;6282214;28;20303;-71
2023/10/30 06:27:53;;;;;;;1.73;1.73;;;;;;;;;;6282287;28;20291;-71
2023/10/30 06:30:56;;;;;;;1.42;1.42;;;;;;;;;;6281528;28;20306;-73
2023/10/30 06:34:01;;;;;;;1.70;1.60;;;;;;;;;;6281607;28;20295;-71
2023/10/30 06:37:05;;;;;;;1.60;1.60;;;;;;;;;;6281919;28;20317;-72
2023/10/30 06:40:11;;;;;;;1.42;1.42;;;;;;;;;;6281409;28;20318;-72
2023/10/30 06:43:15;;;;;;;1.60;1.50;;;;;;;;;;6280908;28;20402;-71
2023/10/30 06:46:18;;;;;;;2.67;1.30;;;;;;;;;;6282075;28;20303;-71
2023/10/30 06:49:23;;;;;;;1.40;1.30;;;;;;;;;;6281333;28;20302;-71
2023/10/30 06:52:27;;;;;;;1.30;1.30;;;;;;;;;;6281655;28;20286;-73
2023/10/30 06:55:32;;;;;;;1.30;1.30;;;;;;;;;;6279506;28;20310;-72
2023/10/30 06:58:35;;;;;;;1.30;1.30;;;;;;;;;;6280416;28;20379;-71
2023/10/30 07:01:43;;;;;;;1.50;1.50;;;;;;;;;;6281066;28;20315;-71
2023/10/30 07:04:48;;;;;;;1.40;1.40;;;;;;;;;;6280455;28;20610;-73
2023/10/30 07:07:52;;;;;;;1.45;1.33;;;;;;;;;;6281315;28;20314;-71
2023/10/30 07:10:56;;;;;;;1.33;1.33;;;;;;;;;;6280789;28;20539;-71
2023/10/30 07:14:02;;;;;;;1.33;1.33;;;;;;;;;;6280678;28;20552;-70
2023/10/30 07:17:06;;;;;;;1.30;1.30;;;;;;;;;;6281158;28;20360;-71
2023/10/30 07:20:12;;;;;;;1.30;1.30;;;;;;;;;;6280663;28;20580;-74
2023/10/30 07:23:16;;;;;;;1.40;1.30;;;;;;;;;;6280746;28;20314;-71
2023/10/30 07:26:21;;;;;;;1.20;1.20;;;;;;;;;;6280891;28;20286;-71
2023/10/30 07:29:25;;;;;;;1.50;1.30;;;;;;;;;;6280480;28;20291;-70
2023/10/30 07:32:29;;;;;;;1.40;1.40;;;;;;;;;;6281407;28;20290;-70
2023/10/30 07:35:35;;;;;;;1.30;1.30;;;;;;;;;;6279700;28;20310;-70
2023/10/30 07:38:39;;;;;;;1.45;1.45;;;;;;;;;;6279041;28;20310;-73
2023/10/30 07:41:42;;;;;;;1.20;1.20;;;;;;;;;;6281003;28;20618;-71
2023/10/30 07:44:46;;;;;;;1.33;1.33;;;;;;;;;;6280246;28;20302;-71
2023/10/30 07:47:52;;;;;;;1.40;1.40;;;;;;;;;;6280844;28;20256;-71
2023/10/30 07:51:01;;;;;;;1.20;1.20;;;;;;;;;;6281225;28;20283;-71
2023/10/30 07:54:06;;;;;;;1.23;1.23;;;;;;;;;;6279075;28;20382;-71
2023/10/30 07:57:10;;;;;;;1.20;1.20;;;;;;;;;;6281220;28;20303;-72
2023/10/30 08:00:15;;;;;;;1.58;1.45;;;;;;;;;;6280217;28;20302;-71
2023/10/30 08:03:19;;;;;;;1.38;1.38;;;;;;;;;;6280246;28;20287;-71
2023/10/30 08:06:25;;;;;;;1.30;1.30;;;;;;;;;;6280707;28;20303;-71
2023/10/30 08:09:29;;;;;;;1.50;1.50;;;;;;;;;;6281729;28;20298;-72
2023/10/30 08:12:32;;;;;;;1.40;1.40;;;;;;;;;;6286090;28;20294;-71
2023/10/30 08:15:36;;;;;;;1.50;1.50;;;;;;;;;;6285204;28;20307;-74
2023/10/30 08:18:40;;;;;;;1.35;1.35;;;;;;;;;;6285245;28;20294;-71
2023/10/30 08:21:46;;;;;;;1.40;1.40;;;;;;;;;;6283953;28;20857;-71
2023/10/30 08:24:49;;;;;;;1.23;1.23;;;;;;;;;;6284597;28;20303;-71
2023/10/30 08:27:54;;;;;;;1.38;1.38;;;;;;;;;;6285396;28;20299;-72
2023/10/30 08:30:58;;;;;;;1.27;1.27;;;;;;;;;;6284983;28;20298;-72
2023/10/30 08:34:02;;;;;;;1.63;1.52;;;;;;;;;;6282841;28;20579;-71
2023/10/30 08:37:07;;;;;;;1.40;1.30;;;;;;;;;;6285371;28;20302;-71
2023/10/30 08:40:12;;;;;;;1.50;1.50;;;;;;;;;;6284984;28;20298;-71
2023/10/30 08:43:16;;;;;;;1.52;1.40;;;;;;;;;;6284452;28;20571;-72
2023/10/30 08:46:20;;;;;;;1.33;1.33;;;;;;;;;;6284746;28;20290;-71
2023/10/30 08:49:23;;;;;;;1.52;1.35;;;;;;;;;;6282845;28;20483;-71
2023/10/30 08:52:29;;;;;;;1.40;1.40;;;;;;;;;;6284434;28;20315;-70
2023/10/30 08:55:32;;;;;;;1.65;1.65;;;;;;;;;;6282284;28;20451;-72
2023/10/30 08:58:36;;;;;;;1.23;1.23;;;;;;;;;;6284073;28;20287;-71
2023/10/30 09:01:40;;;;;;;1.30;1.30;;;;;;;;;;6284316;28;20287;-71
2023/10/30 09:04:44;;;;;;;1.38;1.27;;;;;;;;;;6284002;28;20311;-72
2023/10/30 09:07:50;;;;;;;1.42;1.40;;;;;;;;;;6284362;28;20318;-70
2023/10/30 09:10:53;;;;;;;1.27;1.27;;;;;;;;;;6283746;28;20295;-72
2023/10/30 09:13:57;;;;;;;1.48;1.38;;;;;;;;;;6283736;28;20307;-74
2023/10/30 09:17:01;;;;;;;1.30;1.30;;;;;;;;;;6282261;28;20444;-71
2023/10/30 09:20:06;;;;;;;1.38;1.38;;;;;;;;;;6283634;28;20283;-71
2023/10/30 09:23:11;;;;;;;1.90;1.38;;;;;;;;;;6282508;28;20330;-72
2023/10/30 09:26:15;;;;;;;1.30;1.30;;;;;;;;;;6283577;28;20591;-71
2023/10/30 09:29:19;;;;;;;2.28;1.48;;;;;;;;;;6283445;28;20322;-71
2023/10/30 09:32:23;;;;;;;1.23;1.23;;;;;;;;;;6283966;28;20295;-71
2023/10/30 09:35:29;;;;;;;1.40;1.40;;;;;;;;;;6283296;28;20302;-71
2023/10/30 09:38:34;;;;;;;1.40;1.40;;;;;;;;;;6282730;28;20295;-71
2023/10/30 09:41:41;;;;;;;3.92;1.83;;;;;;;;;;6284011;28;20291;-71
2023/10/30 09:44:45;;;;;;;1.30;1.30;;;;;;;;;;6282877;28;20592;-71
2023/10/30 09:47:54;;;;;;;1.35;1.25;;;;;;;;;;6283438;28;20507;-72
2023/10/30 09:50:59;;;;;;;2.40;1.33;;;;;;;;;;6283406;28;20299;-71
2023/10/30 09:54:06;;;;;;;1.20;1.20;;;;;;;;;;6281331;28;20287;-73
2023/10/30 09:57:10;;;;;;;1.40;1.40;;;;;;;;;;6283818;28;20299;-72
2023/10/30 10:00:15;;;;;;;1.27;1.27;;;;;;;;;;6283152;28;20499;-71
2023/10/30 10:03:20;;;;;;;1.52;1.30;;;;;;;;;;6282979;28;20307;-72
2023/10/30 10:06:24;;;;;;;1.50;1.42;;;;;;;;;;6283325;28;20290;-71
2023/10/30 10:09:29;;;;;;;1.45;1.45;;;;;;;;;;6282930;28;20295;-73
2023/10/30 10:12:34;;;;;;;1.42;1.42;;;;;;;;;;6274323;28;20489;-71
2023/10/30 10:15:38;;;;;;;1.63;1.50;;;;;;;;;;6257699;28;20291;-70
2023/10/30 10:18:42;;;;;;;1.60;1.50;;;;;;;;;;6257769;28;20295;-70
2023/10/30 10:21:50;;;;;;;1.80;1.70;;;;;;;;;;6257884;28;20296;-73
2023/10/30 10:24:56;;;;;;;1.50;1.50;;;;;;;;;;6257614;28;20473;-70
2023/10/30 10:28:01;;;;;;;1.58;1.48;;;;;;;;;;6257858;28;20530;-71
2023/10/30 10:31:05;;;;;;;1.40;1.40;;;;;;;;;;6257326;28;20332;-71
2023/10/30 10:34:09;;;;;;;1.73;1.60;;;;;;;;;;6256846;28;20323;-71
2023/10/30 10:37:17;;;;;;;1.55;1.55;;;;;;;;;;6271667;28;20616;-72
2023/10/30 10:40:25;;;;;;;1.67;1.40;;;;;;;;;;6281692;28;20564;-71
2023/10/30 10:43:29;;;;;;;1.60;1.60;;;;;;;;;;6281546;28;20298;-73
2023/10/30 10:46:33;;;;;;;1.42;1.42;;;;;;;;;;6282252;28;20291;-71
2023/10/30 10:49:41;;;;;;;1.50;1.50;;;;;;;;;;6282134;28;20303;-72
2023/10/30 10:52:46;;;;;;;1.50;1.40;;;;;;;;;;6280287;28;20291;-71
2023/10/30 10:55:51;;;;;;;1.33;1.33;;;;;;;;;;6281980;28;20307;-71
2023/10/30 10:59:00;;;;;;;1.55;1.55;;;;;;;;;;6281201;28;20291;-71
2023/10/30 11:02:09;;;;;;;1.63;1.55;;;;;;;;;;6281552;28;20409;-71
2023/10/30 11:05:13;;;;;;;1.60;1.60;;;;;;;;;;6281192;28;20302;-71
2023/10/30 11:08:38;;;;;;;1.83;1.73;;;;;;;;;;6281012;28;20294;-72
2023/10/30 11:11:50;;;;;;;2.10;1.50;;;;;;;;;;6263954;28;20316;-71
2023/10/30 11:15:01;;;;;;;1.42;1.42;;;;;;;;;;6256110;28;20295;-70
2023/10/30 11:18:15;;;;;;;1.92;1.67;;;;;;;;;;6256614;28;20299;-71
2023/10/30 11:21:19;;;;;;;1.50;1.50;;;;;;;;;;6255271;28;20469;-72
2023/10/30 11:24:36;;;;;;;1.83;1.83;;;;;;;;;;6256019;28;20611;-71
2023/10/30 11:27:42;;;;;;;1.48;1.48;;;;;;;;;;6256092;28;20304;-71
2023/10/30 11:30:46;;;;;;;1.67;1.67;;;;;;;;;;6256049;28;20462;-71
2023/10/30 11:33:50;;;;;;;1.50;1.40;;;;;;;;;;6255639;28;20287;-71
2023/10/30 11:36:53;;;;;;;1.55;1.55;;;;;;;;;;6256399;28;20499;-71
2023/10/30 11:40:01;;;;;;;1.60;1.50;;;;;;;;;;6237781;28;20287;-72
2023/10/30 11:43:08;;;;;;;1.85;1.40;;;;;;;;;;6256115;28;20379;-72
2023/10/30 11:46:13;;;;;;;1.50;1.50;;;;;;;;;;6236534;28;20405;-71
2023/10/30 11:49:20;;;;;;;1.42;1.42;;;;;;;;;;6255483;28;20319;-72
2023/10/30 11:52:24;;;;;;;2.97;1.55;;;;;;;;;;6256036;28;20287;-70
2023/10/30 11:55:30;;;;;;;1.58;1.58;;;;;;;;;;6253902;28;20299;-71
2023/10/30 11:58:35;;;;;;;1.48;1.48;;;;;;;;;;6255220;28;20373;-71
2023/10/30 12:01:39;;;;;;;1.65;1.58;;;;;;;;;;6255735;28;20303;-72
2023/10/30 12:04:45;;;;;;;1.75;1.30;;;;;;;;;;6255185;28;20347;-71
2023/10/30 12:07:49;;;;;;;1.80;1.70;;;;;;;;;;6255861;28;20351;-71
2023/10/30 12:10:53;;;;;;;1.40;1.40;;;;;;;;;;6255132;28;20291;-72
2023/10/30 12:13:58;;;;;;;1.60;1.60;;;;;;;;;;6262127;28;20298;-76
2023/10/30 12:17:04;;;;;;;1.45;1.42;;;;;;;;;;6280378;28;20458;-71
2023/10/30 12:20:09;;;;;;;1.95;1.85;;;;;;;;;;6280048;28;20290;-71
2023/10/30 12:23:13;;;;;;;1.73;1.63;;;;;;;;;;6280075;28;20303;-71
2023/10/30 12:26:19;;;;;;;1.60;1.60;;;;;;;;;;6280175;28;20460;-71
2023/10/30 12:29:25;;;;;;;1.50;1.50;;;;;;;;;;6279878;28;20318;-72
2023/10/30 12:32:31;;;;;;;1.60;1.60;;;;;;;;;;6278682;28;20300;-71
2023/10/30 12:35:35;;;;;;;1.67;1.67;;;;;;;;;;6278965;28;20310;-71
2023/10/30 12:38:39;;;;;;;1.55;1.45;;;;;;;;;;6279539;28;20290;-72
2023/10/30 12:41:43;;;;;;;1.70;1.60;;;;;;;;;;6280343;28;20267;-72
2023/10/30 12:44:49;;;;;;;1.50;1.50;;;;;;;;;;6279538;28;20303;-72
2023/10/30 12:47:53;;;;;;;1.33;1.33;;;;;;;;;;6280016;28;20287;-73
2023/10/30 12:50:58;;;;;;;2.97;1.50;;;;;;;;;;6279663;28;20478;-72
2023/10/30 12:54:02;;;;;;;1.60;1.60;;;;;;;;;;6277992;28;20359;-71
2023/10/30 12:57:06;;;;;;;1.85;1.75;;;;;;;;;;6282036;28;20443;-71
2023/10/30 13:00:12;;;;;;;1.88;1.73;;;;;;;;;;6284308;28;20290;-70
2023/10/30 13:03:16;;;;;;;1.88;1.88;;;;;;;;;;6283290;28;20298;-71
2023/10/30 13:06:20;;;;;;;1.77;1.77;;;;;;;;;;6241739;28;20291;-72
2023/10/30 13:09:24;;;;;;;1.70;1.70;;;;;;;;;;6259213;28;20600;-72
2023/10/30 13:12:30;;;;;;;1.90;1.90;;;;;;;;;;6244302;28;20295;-71
2023/10/30 13:15:36;;;;;;;1.80;1.70;;;;;;;;;;6259647;28;20295;-71
2023/10/30 13:18:41;;;;;;;1.95;1.90;;;;;;;;;;6259446;28;20303;-71
2023/10/30 13:21:44;;;;;;;2.03;1.92;;;;;;;;;;6259591;28;20300;-72
2023/10/30 13:24:49;;;;;;;1.83;1.73;;;;;;;;;;6259149;28;20300;-72
2023/10/30 13:27:53;;;;;;;1.98;1.98;;;;;;;;;;6259445;28;20311;-71
2023/10/30 13:30:59;;;;;;;2.25;1.75;;;;;;;;;;6259250;28;20386;-71
2023/10/30 13:34:03;;;;;;;2.40;2.20;;;;;;;;;;6259140;28;20295;-72
2023/10/30 13:37:07;;;;;;;2.10;1.92;;;;;;;;;;6259828;28;20307;-71
2023/10/30 13:40:12;;;;;;;1.92;1.92;;;;;;;;;;6241052;28;20326;-71
2023/10/30 13:43:16;;;;;;;2.22;2.13;;;;;;;;;;6260909;28;20287;-72
2023/10/30 13:46:21;;;;;;;2.20;2.10;;;;;;;;;;6283871;28;20286;-73
2023/10/30 13:49:25;;;;;;;2.92;2.20;;;;;;;;;;6283562;28;20299;-72
2023/10/30 13:52:29;;;;;;;2.42;2.33;;;;;;;;;;6266032;28;20394;-72
2023/10/30 13:55:33;;;;;;;2.88;2.70;;;;;;;;;;6281552;28;20319;-71
2023/10/30 13:58:38;;;;;;;2.50;2.30;;;;;;;;;;6283256;28;20298;-71
2023/10/30 14:01:44;;;;;;;2.90;2.70;;;;;;;;;;6283814;28;20298;-70
2023/10/30 14:04:47;;;;;;;2.50;2.40;;;;;;;;;;6282933;28;20295;-71
2023/10/30 14:07:53;;;;;;;2.30;2.30;;;;;;;;;;6282465;28;20287;-71
2023/10/30 14:10:57;;;;;;;2.72;2.55;;;;;;;;;;6282545;28;20298;-72
2023/10/30 14:14:00;;;;;;;2.20;2.10;;;;;;;;;;6282734;28;20294;-71
2023/10/30 14:17:06;;;;;;;2.10;2.00;;;;;;;;;;6283228;28;20319;-71
2023/10/30 14:20:10;;;;;;;3.72;2.30;;;;;;;;;;6263951;28;20318;-71
2023/10/30 14:23:14;;;;;;;2.75;2.55;;;;;;;;;;6282216;28;20298;-71
2023/10/30 14:26:18;;;;;;;2.17;2.10;;;;;;;;;;6282615;28;20381;-70
2023/10/30 14:29:22;;;;;;;2.35;2.15;;;;;;;;;;6282640;28;20295;-70
2023/10/30 14:32:28;;;;;;;2.33;2.33;;;;;;;;;;6282791;28;20291;-71
2023/10/30 14:35:31;;;;;;;2.10;2.10;;;;;;;;;;6281476;28;20607;-72
2023/10/30 14:38:37;;;;;;;2.33;2.22;;;;;;;;;;6282010;28;20306;-71
2023/10/30 14:41:40;;;;;;;2.53;2.38;;;;;;;;;;6282645;28;20263;-70
2023/10/30 14:44:44;;;;;;;2.40;2.22;;;;;;;;;;6282080;28;20616;-71
2023/10/30 14:47:49;;;;;;;2.38;2.22;;;;;;;;;;6282760;28;20248;-71
2023/10/30 14:50:54;;;;;;;2.58;2.40;;;;;;;;;;6263877;28;20294;-71
2023/10/30 14:53:58;;;;;;;2.22;2.13;;;;;;;;;;6280047;28;20231;-72
2023/10/30 14:57:02;;;;;;;2.40;2.35;;;;;;;;;;6282581;28;20304;-72
2023/10/30 15:00:07;;;;;;;2.30;2.20;;;;;;;;;;6263503;28;20294;-71
2023/10/30 15:03:12;;;;;;;3.13;2.25;;;;;;;;;;6281463;28;20592;-70
2023/10/30 15:06:16;;;;;;;3.35;2.63;;;;;;;;;;6281843;28;20291;-70
2023/10/30 15:09:21;;;;;;;2.67;2.58;;;;;;;;;;6281532;28;20295;-70
2023/10/30 15:12:24;;;;;;;4.40;2.60;;;;;;;;;;6281589;28;20303;-70
2023/10/30 15:15:28;;;;;;;2.78;2.58;;;;;;;;;;6281518;28;20306;-70
2023/10/30 15:18:33;;;;;;;2.55;2.40;;;;;;;;;;6262459;28;20286;-70
2023/10/30 15:21:37;;;;;;;2.53;2.42;;;;;;;;;;6281301;28;20493;-71
2023/10/30 15:24:41;;;;;;;2.63;2.50;;;;;;;;;;6280948;28;20298;-71
2023/10/30 15:27:44;;;;;;;2.53;2.53;;;;;;;;;;6281170;28;20295;-70
2023/10/30 15:30:51;;;;;;;2.42;2.42;;;;;;;;;;6281001;28;20290;-70
2023/10/30 15:33:57;;;;;;;2.88;2.70;;;;;;;;;;6281512;28;20302;-71
2023/10/30 15:37:01;;;;;;;2.80;2.70;;;;;;;;;;6282657;28;20339;-71
2023/10/30 15:40:06;;;;;;;2.80;2.70;;;;;;;;;;6281618;28;20306;-70
2023/10/30 15:43:10;;;;;;;2.72;2.63;;;;;;;;;;6263037;28;20483;-71
2023/10/30 15:46:14;;;;;;;2.83;2.63;;;;;;;;;;6281481;28;20298;-73
2023/10/30 15:49:19;;;;;;;2.63;2.50;;;;;;;;;;6280984;28;20294;-73
2023/10/30 15:52:23;;;;;;;2.80;2.70;;;;;;;;;;6281547;28;20290;-72
2023/10/30 15:55:27;;;;;;;3.70;2.70;;;;;;;;;;6279253;28;20291;-71
2023/10/30 15:58:30;;;;;;;3.25;3.13;;;;;;;;;;6262490;28;20318;-73
2023/10/30 16:01:37;;;;;;;3.33;3.13;;;;;;;;;;6281225;28;20298;-72
2023/10/30 16:04:42;;;;;;;5.50;3.47;;;;;;;;;;6280016;28;20318;-71
2023/10/30 16:08:05;;;;;;;3.38;3.28;;;;;;;;;;6280609;28;20307;-71
2023/10/30 16:11:09;;;;;;;3.45;3.17;;;;;;;;;;6279907;28;20319;-72
2023/10/30 16:14:32;;;;;;;3.58;3.28;;;;;;;;;;6277405;28;20471;-71
2023/10/30 16:17:36;;;;;;;3.25;3.17;;;;;;;;;;6280257;28;20243;-70
2023/10/30 16:20:41;;;;;;;3.53;3.33;;;;;;;;;;6280154;28;20295;-72
2023/10/30 16:24:00;;;;;;;3.92;3.63;;;;;;;;;;6279693;28;20294;-71
2023/10/30 16:27:05;;;;;;;3.72;3.53;;;;;;;;;;6280440;28;20379;-71
2023/10/30 16:30:09;;;;;;;3.42;3.33;;;;;;;;;;6280458;28;20465;-71
2023/10/30 16:33:13;;;;;;;3.55;3.42;;;;;;;;;;6284781;28;20291;-71
2023/10/30 16:36:19;;;;;;;3.05;2.95;;;;;;;;;;6284980;28;20291;-70
2023/10/30 16:39:28;;;;;;;3.45;3.35;;;;;;;;;;6284699;28;20298;-72
2023/10/30 16:42:32;;;;;;;3.10;3.00;;;;;;;;;;6285307;28;20290;-71
2023/10/30 16:45:36;;;;;;;3.22;2.80;;;;;;;;;;6284467;28;20238;-71
2023/10/30 16:48:40;;;;;;;3.03;2.83;;;;;;;;;;6285104;28;20363;-71
2023/10/30 16:51:45;;;;;;;2.72;2.63;;;;;;;;;;6285503;28;20322;-71
2023/10/30 16:54:49;;;;;;;2.03;2.03;;;;;;;;;;6282828;28;20306;-71
2023/10/30 16:57:53;;;;;;;2.30;2.30;;;;;;;;;;6284845;28;20503;-71
2023/10/30 17:00:56;;;;;;;2.58;1.98;;;;;;;;;;6284003;28;20595;-71
2023/10/30 17:04:00;;;;;;;1.95;1.95;;;;;;;;;;6284036;28;20298;-71
2023/10/30 17:07:07;;;;;;;2.78;2.00;;;;;;;;;;6284490;28;20485;-72
2023/10/30 17:10:11;;;;;;;1.85;1.75;;;;;;;;;;6283788;28;20315;-71
2023/10/30 17:13:15;;;;;;;6.07;5.50;;;;;;;;;;6283930;28;20291;-73
2023/10/30 17:16:19;;;;;;;2.30;2.20;;;;;;;;;;6284145;28;20291;-72
2023/10/30 17:19:23;;;;;;;2.35;2.25;;;;;;;;;;6283620;28;20306;-70
2023/10/30 17:22:28;;;;;;;1.60;1.50;;;;;;;;;;6284468;28;20306;-71
2023/10/30 17:25:32;;;;;;;1.45;1.40;;;;;;;;;;6283837;28;20231;-71
2023/10/30 17:28:37;;;;;;;1.20;1.20;;;;;;;;;;6283936;28;20291;-71
2023/10/30 17:31:41;;;;;;;1.50;1.40;;;;;;;;;;6284411;28;20569;-75
2023/10/30 17:34:44;;;;;;;1.60;1.60;;;;;;;;;;6283670;28;20298;-72
2023/10/30 17:37:50;;;;;;;1.58;1.50;;;;;;;;;;6266094;28;20303;-72
2023/10/30 17:40:54;;;;;;;1.33;1.33;;;;;;;;;;6283452;28;20472;-71
2023/10/30 17:43:58;;;;;;;1.60;1.52;;;;;;;;;;6282734;28;20294;-72
2023/10/30 17:47:01;;;;;;;1.40;1.40;;;;;;;;;;6283934;28;20307;-74
2023/10/30 17:50:06;;;;;;;1.35;1.35;;;;;;;;;;6283328;28;20310;-70
2023/10/30 17:53:11;;;;;;;1.52;1.52;;;;;;;;;;6281156;28;20620;-74
2023/10/30 17:56:15;;;;;;;1.67;1.27;;;;;;;;;;6283523;28;20288;-71
2023/10/30 17:59:19;;;;;;;1.85;1.48;;;;;;;;;;6283234;28;20287;-72
2023/10/30 18:02:23;;;;;;;1.98;1.75;;;;;;;;;;6265357;28;20290;-71
2023/10/30 18:05:27;;;;;;;1.67;1.25;;;;;;;;;;6283044;28;20627;-72
2023/10/30 18:08:32;;;;;;;1.58;1.40;;;;;;;;;;6282903;28;20307;-73
2023/10/30 18:11:36;;;;;;;1.70;1.60;;;;;;;;;;6282295;28;20264;-73
2023/10/30 18:14:39;;;;;;;2.58;1.50;;;;;;;;;;6282955;28;20306;-73
2023/10/30 18:17:44;;;;;;;1.55;1.55;;;;;;;;;;6283548;28;20251;-71
2023/10/30 18:20:48;;;;;;;1.50;1.40;;;;;;;;;;6282662;28;20329;-73
2023/10/30 18:23:53;;;;;;;1.67;1.27;;;;;;;;;;6282684;28;20299;-70
2023/10/30 18:26:57;;;;;;;1.30;1.30;;;;;;;;;;6282794;28;20287;-71